Time;durP1;ratioP1;P1;durP2;ratioP2;P2;SDS_P1;SDS_P2;PMS_P1;PMS_P2;Temp;Humidity;BMP_temperature;BMP_pressure;BME280_temperature;BME280_humidity;BME280_pressure;Samples;Min_cycle;Max_cycle;Signal;HPM_P1;HPM_P2
2023/11/27 00:00:07;;;;;;;9.73;5.43;;;7.00;99.90;;;;;;10471835;28;20228;-63
2023/11/27 00:05:12;;;;;;;11.17;4.73;;;7.00;99.90;;;;;;10474435;28;20207;-63
2023/11/27 00:10:15;;;;;;;6.47;4.27;;;7.00;99.90;;;;;;10469092;28;20230;-62
2023/11/27 00:15:19;;;;;;;8.13;4.80;;;6.90;99.90;;;;;;10465326;28;20207;-62
2023/11/27 00:20:24;;;;;;;7.80;4.80;;;6.90;99.90;;;;;;10475553;28;20232;-63
2023/11/27 00:25:27;;;;;;;7.10;4.80;;;7.00;99.90;;;;;;10472903;28;20202;-63
2023/11/27 00:30:31;;;;;;;10.50;4.87;;;7.00;99.90;;;;;;10468745;28;20224;-63
2023/11/27 00:35:36;;;;;;;8.30;4.80;;;7.00;99.90;;;;;;10474294;28;20920;-63
2023/11/27 00:40:39;;;;;;;9.17;4.50;;;7.00;99.90;;;;;;10474918;28;20286;-63
2023/11/27 00:45:43;;;;;;;9.40;4.30;;;7.00;99.90;;;;;;10476132;28;20209;-64
2023/11/27 00:50:48;;;;;;;7.43;4.00;;;7.00;99.90;;;;;;10466666;28;20228;-63
2023/11/27 00:55:51;;;;;;;6.43;3.97;;;7.00;99.90;;;;;;10480829;28;20312;-63
2023/11/27 01:00:55;;;;;;;7.70;4.57;;;7.00;99.90;;;;;;10467760;28;20272;-63
2023/11/27 01:06:00;;;;;;;6.67;3.83;;;7.00;99.90;;;;;;10461311;28;20204;-63
2023/11/27 01:11:04;;;;;;;8.77;4.80;;;7.00;99.90;;;;;;10483411;28;20213;-63
2023/11/27 01:16:08;;;;;;;5.70;3.97;;;7.00;99.90;;;;;;10473875;28;20260;-63
2023/11/27 01:21:13;;;;;;;8.83;4.43;;;7.00;99.90;;;;;;10474296;28;20222;-63
2023/11/27 01:26:17;;;;;;;8.93;4.43;;;7.00;99.90;;;;;;10467915;28;20202;-63
2023/11/27 01:31:20;;;;;;;10.37;4.20;;;7.00;99.90;;;;;;10466875;28;20226;-63
2023/11/27 01:36:25;;;;;;;8.97;4.30;;;7.00;99.90;;;;;;10471248;28;20572;-63
2023/11/27 01:41:28;;;;;;;7.83;4.47;;;7.00;99.90;;;;;;10468154;28;20232;-63
2023/11/27 01:46:33;;;;;;;6.77;4.27;;;7.00;99.90;;;;;;10465206;28;20299;-64
2023/11/27 01:51:39;;;;;;;7.83;4.50;;;7.10;99.90;;;;;;10466717;28;20347;-63
2023/11/27 01:56:47;;;;;;;8.00;4.73;;;7.00;99.90;;;;;;10475156;28;20605;-64
2023/11/27 02:01:51;;;;;;;7.17;4.57;;;7.00;99.90;;;;;;10467967;28;20226;-62
2023/11/27 02:06:57;;;;;;;6.03;4.53;;;7.00;99.90;;;;;;10474120;28;20201;-65
2023/11/27 02:12:00;;;;;;;8.33;4.60;;;6.90;99.90;;;;;;10456306;28;20222;-63
2023/11/27 02:17:04;;;;;;;6.30;4.40;;;6.90;99.90;;;;;;10477769;28;20278;-64
2023/11/27 02:22:09;;;;;;;8.50;4.73;;;6.90;99.90;;;;;;10473674;28;20237;-63
2023/11/27 02:27:14;;;;;;;10.67;4.47;;;6.90;99.90;;;;;;10473340;28;20207;-63
2023/11/27 02:32:17;;;;;;;10.93;5.30;;;6.90;99.90;;;;;;10460972;28;20651;-61
2023/11/27 02:37:21;;;;;;;10.27;5.17;;;6.80;99.90;;;;;;10475381;28;20716;-63
2023/11/27 02:42:26;;;;;;;8.23;5.20;;;6.80;99.90;;;;;;10476793;28;20276;-63
2023/11/27 02:47:29;;;;;;;9.43;5.10;;;6.80;99.90;;;;;;10472713;28;20210;-63
2023/11/27 02:52:33;;;;;;;7.47;5.27;;;6.90;99.90;;;;;;10474332;28;20252;-63
2023/11/27 02:57:38;;;;;;;9.97;5.50;;;6.90;99.90;;;;;;10471938;28;20201;-64
2023/11/27 03:02:42;;;;;;;8.67;5.40;;;6.90;99.90;;;;;;10469793;28;20297;-63
2023/11/27 03:07:46;;;;;;;8.30;5.20;;;6.80;99.90;;;;;;10471025;28;20719;-63
2023/11/27 03:12:52;;;;;;;9.80;5.40;;;6.90;99.90;;;;;;10473448;28;20679;-63
2023/11/27 03:17:55;;;;;;;10.00;5.93;;;6.90;99.90;;;;;;10477890;28;20265;-63
2023/11/27 03:22:59;;;;;;;9.53;5.37;;;6.90;99.90;;;;;;10473807;28;20646;-63
2023/11/27 03:28:04;;;;;;;11.73;6.83;;;6.90;99.90;;;;;;10469945;28;20202;-63
2023/11/27 03:33:08;;;;;;;6.80;4.80;;;6.90;99.90;;;;;;10474522;28;20222;-63
2023/11/27 03:38:11;;;;;;;7.93;5.43;;;6.90;99.90;;;;;;10468064;28;20203;-63
2023/11/27 03:43:16;;;;;;;11.27;4.87;;;6.90;99.90;;;;;;10454041;28;20280;-63
2023/11/27 03:48:20;;;;;;;8.10;4.90;;;6.90;99.90;;;;;;10463762;28;20728;-63
2023/11/27 03:53:24;;;;;;;8.13;5.70;;;6.90;99.90;;;;;;10464804;28;20508;-64
2023/11/27 03:58:28;;;;;;;8.63;5.37;;;7.00;99.90;;;;;;10464078;28;20555;-62
2023/11/27 04:03:32;;;;;;;7.87;4.87;;;6.90;99.90;;;;;;10462002;28;20271;-63
2023/11/27 04:08:38;;;;;;;6.63;4.73;;;6.90;99.90;;;;;;10447663;28;20256;-64
2023/11/27 04:13:44;;;;;;;6.67;5.37;;;7.00;99.90;;;;;;10477498;28;20225;-63
2023/11/27 04:18:48;;;;;;;10.90;5.40;;;7.00;99.90;;;;;;10467992;28;20226;-63
2023/11/27 04:23:52;;;;;;;8.13;6.03;;;6.90;99.90;;;;;;10465315;28;20275;-63
2023/11/27 04:28:58;;;;;;;9.50;6.90;;;6.90;99.90;;;;;;10449963;28;20202;-63
2023/11/27 04:34:02;;;;;;;8.87;6.20;;;7.00;99.90;;;;;;10469145;28;20217;-64
2023/11/27 04:39:10;;;;;;;9.50;7.10;;;6.90;99.90;;;;;;10471407;28;20226;-63
2023/11/27 04:44:16;;;;;;;9.47;6.07;;;6.90;99.90;;;;;;10476584;28;20247;-63
2023/11/27 04:49:20;;;;;;;7.53;6.00;;;6.90;99.90;;;;;;10450939;28;20662;-67
2023/11/27 04:54:23;;;;;;;10.10;6.33;;;7.00;99.90;;;;;;10465467;28;20273;-68
2023/11/27 04:59:28;;;;;;;9.37;6.27;;;7.00;99.90;;;;;;10463835;28;20282;-67
2023/11/27 05:04:33;;;;;;;9.07;6.23;;;7.00;99.90;;;;;;10466918;28;20213;-67
2023/11/27 05:09:40;;;;;;;9.53;6.73;;;7.00;99.90;;;;;;10470020;28;20290;-67
2023/11/27 05:14:45;;;;;;;11.73;7.87;;;7.00;99.90;;;;;;10471338;28;20247;-68
2023/11/27 05:19:48;;;;;;;10.73;7.13;;;6.90;99.90;;;;;;10472022;28;20278;-68
2023/11/27 05:24:52;;;;;;;8.23;6.67;;;6.90;99.90;;;;;;10465574;28;20572;-67
2023/11/27 05:29:57;;;;;;;8.00;7.20;;;6.90;99.90;;;;;;10470612;28;20217;-67
2023/11/27 05:35:00;;;;;;;7.33;6.53;;;6.90;99.90;;;;;;10466134;28;20201;-67
2023/11/27 05:40:06;;;;;;;11.23;6.17;;;6.90;99.90;;;;;;10475909;28;20276;-68
2023/11/27 05:45:12;;;;;;;10.03;7.13;;;6.90;99.90;;;;;;10450239;28;20202;-67
2023/11/27 05:50:18;;;;;;;8.83;7.00;;;6.90;99.90;;;;;;10453049;28;20279;-68
2023/11/27 05:55:22;;;;;;;11.65;7.82;;;6.90;99.90;;;;;;10478075;28;20536;-67
2023/11/27 06:00:27;;;;;;;15.00;9.67;;;6.90;99.90;;;;;;10461148;28;20246;-66
2023/11/27 06:05:30;;;;;;;10.70;7.10;;;7.00;99.90;;;;;;10472260;28;20205;-67
2023/11/27 06:10:34;;;;;;;10.07;7.47;;;7.00;99.90;;;;;;10473433;28;20217;-67
2023/11/27 06:15:46;;;;;;;9.90;6.70;;;6.90;99.90;;;;;;10470559;28;20214;-66
2023/11/27 06:20:50;;;;;;;11.20;6.87;;;6.90;99.90;;;;;;10468236;28;20292;-66
2023/11/27 06:25:53;;;;;;;10.40;6.30;;;6.90;99.90;;;;;;10472853;28;20233;-67
2023/11/27 06:30:58;;;;;;;10.53;6.27;;;6.90;99.90;;;;;;10461959;28;20624;-67
2023/11/27 06:36:02;;;;;;;8.47;5.23;;;6.90;99.90;;;;;;10468803;28;20225;-66
2023/11/27 06:41:06;;;;;;;9.37;5.70;;;6.90;99.90;;;;;;10466255;28;20666;-66
2023/11/27 06:46:14;;;;;;;6.80;5.20;;;6.90;99.90;;;;;;10460961;28;20255;-66
2023/11/27 06:51:18;;;;;;;8.23;5.67;;;6.90;99.90;;;;;;10467427;28;20312;-66
2023/11/27 06:56:21;;;;;;;10.07;6.97;;;6.90;99.90;;;;;;10471665;28;20263;-66
2023/11/27 07:01:28;;;;;;;8.10;4.97;;;6.90;99.90;;;;;;10475725;28;20291;-66
2023/11/27 07:06:34;;;;;;;6.40;4.70;;;6.90;99.90;;;;;;10519032;22;20782;-64
2023/11/27 07:11:37;;;;;;;9.30;4.57;;;6.90;99.90;;;;;;10458637;28;20273;-62
2023/11/27 07:16:43;;;;;;;8.13;4.43;;;6.90;99.90;;;;;;10452806;28;20260;-62
2023/11/27 07:21:46;;;;;;;7.63;4.27;;;6.90;99.90;;;;;;10456121;28;20227;-63
2023/11/27 07:26:50;;;;;;;8.40;4.73;;;6.90;99.90;;;;;;10449882;28;20221;-62
2023/11/27 07:31:55;;;;;;;6.70;4.43;;;6.90;99.90;;;;;;10445161;28;20218;-63
2023/11/27 07:36:59;;;;;;;6.87;4.63;;;6.90;99.90;;;;;;10451643;28;20199;-64
2023/11/27 07:42:03;;;;;;;7.77;4.77;;;6.80;99.90;;;;;;10456472;28;20624;-64
2023/11/27 07:47:08;;;;;;;12.50;6.27;;;6.80;99.90;;;;;;10455855;28;20214;-65
2023/11/27 07:52:13;;;;;;;5.83;4.57;;;6.80;99.90;;;;;;10452617;28;20273;-62
2023/11/27 07:57:17;;;;;;;6.73;4.60;;;6.90;99.90;;;;;;10444832;28;20249;-63
2023/11/27 08:02:22;;;;;;;6.73;4.93;;;6.80;99.90;;;;;;10454615;28;20823;-63
2023/11/27 08:07:26;;;;;;;7.63;4.03;;;6.80;99.90;;;;;;10447277;28;20718;-64
2023/11/27 08:12:29;;;;;;;5.47;4.63;;;6.80;99.90;;;;;;10438998;28;20241;-64
2023/11/27 08:17:34;;;;;;;8.83;7.37;;;6.70;99.90;;;;;;10450562;28;20249;-67
2023/11/27 08:22:38;;;;;;;7.90;5.83;;;6.70;99.90;;;;;;10433828;28;20226;-67
2023/11/27 08:27:42;;;;;;;6.60;4.50;;;6.70;99.90;;;;;;10440474;28;20207;-67
2023/11/27 08:32:48;;;;;;;6.30;5.32;;;6.70;99.90;;;;;;10440493;28;20502;-68
2023/11/27 08:37:51;;;;;;;5.70;3.40;;;6.90;99.90;;;;;;10450028;28;20210;-69
2023/11/27 08:42:55;;;;;;;4.73;3.13;;;6.90;99.90;;;;;;10431916;28;20258;-68
2023/11/27 08:48:00;;;;;;;4.10;2.83;;;6.90;99.90;;;;;;10434285;28;20204;-68
2023/11/27 08:53:09;;;;;;;2.87;2.00;;;6.80;99.90;;;;;;10428198;28;20700;-67
2023/11/27 08:58:12;;;;;;;3.83;2.63;;;6.80;99.90;;;;;;10447378;28;20210;-67
2023/11/27 09:03:18;;;;;;;2.70;2.10;;;6.80;99.90;;;;;;10380080;28;20268;-67
2023/11/27 09:08:22;;;;;;;2.40;1.93;;;6.70;99.90;;;;;;10440453;28;20194;-66
2023/11/27 09:13:26;;;;;;;2.40;2.00;;;6.70;99.90;;;;;;10443524;28;20588;-67
2023/11/27 09:18:31;;;;;;;2.60;1.87;;;6.70;99.90;;;;;;10431007;28;20820;-66
2023/11/27 09:23:35;;;;;;;2.13;1.93;;;6.60;99.90;;;;;;10420295;28;20253;-67
2023/11/27 09:28:38;;;;;;;4.43;1.70;;;6.60;99.90;;;;;;10442369;28;20791;-67
2023/11/27 09:33:43;;;;;;;1.97;1.80;;;6.60;99.90;;;;;;10436784;28;20760;-68
2023/11/27 09:38:48;;;;;;;2.13;1.60;;;6.60;99.90;;;;;;10423906;28;20193;-66
2023/11/27 09:43:52;;;;;;;1.90;1.70;;;6.60;99.90;;;;;;10441347;28;20794;-67
2023/11/27 09:48:58;;;;;;;2.20;2.00;;;6.60;99.90;;;;;;10453016;28;20241;-67
2023/11/27 09:54:06;;;;;;;2.07;1.60;;;6.60;99.90;;;;;;10443970;28;20221;-67
2023/11/27 09:59:12;;;;;;;1.87;1.60;;;6.60;99.90;;;;;;10445032;28;20228;-67
2023/11/27 10:04:17;;;;;;;2.00;1.80;;;6.60;99.90;;;;;;10445210;28;20225;-68
2023/11/27 10:09:22;;;;;;;1.77;1.60;;;6.60;99.90;;;;;;10439119;28;20206;-66
2023/11/27 10:14:27;;;;;;;3.07;1.67;;;6.60;99.90;;;;;;10446846;28;20222;-65
2023/11/27 10:19:44;;;;;;;1.50;1.40;;;6.60;99.90;;;;;;10445530;28;20226;-65
2023/11/27 10:24:48;;;;;;;1.40;1.10;;;6.60;99.90;;;;;;10440803;28;20246;-66
2023/11/27 10:29:52;;;;;;;2.37;1.53;;;6.60;99.90;;;;;;10428097;28;20273;-66
2023/11/27 10:34:59;;;;;;;1.70;1.40;;;6.60;99.90;;;;;;10430865;28;20708;-65
2023/11/27 10:40:04;;;;;;;1.70;1.47;;;6.50;99.90;;;;;;10450784;28;20217;-66
2023/11/27 10:45:10;;;;;;;1.67;1.40;;;6.50;99.90;;;;;;10441505;28;20244;-66
2023/11/27 10:50:16;;;;;;;1.40;1.10;;;6.50;99.90;;;;;;10450626;28;20598;-66
2023/11/27 10:55:20;;;;;;;2.20;1.90;;;6.50;99.90;;;;;;10444787;28;20217;-65
2023/11/27 11:00:29;;;;;;;1.10;0.83;;;6.60;99.90;;;;;;10428403;28;20230;-66
2023/11/27 11:05:44;;;;;;;1.30;1.20;;;6.60;99.90;;;;;;10439149;28;20226;-66
2023/11/27 11:10:48;;;;;;;1.60;1.37;;;6.60;99.90;;;;;;10424254;28;20297;-66
2023/11/27 11:15:56;;;;;;;2.20;0.90;;;6.60;99.90;;;;;;10433815;28;20200;-66
2023/11/27 11:21:15;;;;;;;1.20;1.10;;;6.60;99.90;;;;;;10442541;28;20280;-66
2023/11/27 11:26:44;;;;;;;2.40;1.23;;;6.60;99.90;;;;;;10456403;28;20225;-66
2023/11/27 11:32:00;;;;;;;1.50;1.10;;;6.60;99.90;;;;;;10456016;28;20269;-65
2023/11/27 11:37:07;;;;;;;1.00;0.77;;;6.60;99.90;;;;;;10451011;28;20257;-66
2023/11/27 11:42:14;;;;;;;1.00;0.90;;;6.60;99.90;;;;;;10435547;28;20227;-64
2023/11/27 11:47:26;;;;;;;1.83;1.20;;;6.60;99.90;;;;;;10443548;28;20718;-64
2023/11/27 11:52:36;;;;;;;4.97;2.13;;;6.50;99.90;;;;;;10450912;28;20229;-62
2023/11/27 11:57:41;;;;;;;2.47;2.27;;;6.60;99.90;;;;;;10456608;28;20202;-69
2023/11/27 12:02:47;;;;;;;10.00;9.20;;;6.50;99.90;;;;;;10442964;28;20249;-64
2023/11/27 12:07:52;;;;;;;4.97;4.57;;;6.50;99.90;;;;;;10441689;28;20205;-64
2023/11/27 12:12:56;;;;;;;3.80;3.60;;;6.60;99.90;;;;;;10452695;28;20219;-64
2023/11/27 12:17:59;;;;;;;2.03;1.40;;;6.60;99.90;;;;;;10455078;28;20723;-64
2023/11/27 12:23:05;;;;;;;1.67;1.30;;;6.60;99.90;;;;;;10461730;28;20287;-64
2023/11/27 12:28:09;;;;;;;1.30;1.20;;;6.60;99.90;;;;;;10454397;28;20203;-64
2023/11/27 12:33:15;;;;;;;1.23;1.13;;;6.60;99.90;;;;;;10437761;28;20223;-64
2023/11/27 12:38:20;;;;;;;1.90;1.70;;;6.60;99.90;;;;;;10452565;28;20656;-63
2023/11/27 12:43:24;;;;;;;1.50;1.13;;;6.60;99.90;;;;;;10445119;28;20273;-63
2023/11/27 12:48:32;;;;;;;3.17;1.77;;;6.60;99.90;;;;;;10446964;28;20257;-64
2023/11/27 12:53:37;;;;;;;1.80;1.50;;;6.70;99.90;;;;;;10436277;28;20222;-64
2023/11/27 12:58:41;;;;;;;1.70;1.43;;;6.70;99.90;;;;;;10447829;28;20569;-66
2023/11/27 13:03:47;;;;;;;1.93;1.33;;;6.70;99.90;;;;;;10402260;28;20222;-69
2023/11/27 13:08:53;;;;;;;2.40;1.60;;;6.70;99.90;;;;;;10441209;28;20225;-64
2023/11/27 13:13:57;;;;;;;2.70;1.40;;;6.70;99.90;;;;;;10452842;28;20218;-68
2023/11/27 13:19:02;;;;;;;1.57;1.20;;;6.80;99.90;;;;;;10449153;28;20728;-65
2023/11/27 13:24:07;;;;;;;1.93;1.40;;;6.70;99.90;;;;;;10411480;28;20581;-65
2023/11/27 13:29:12;;;;;;;2.23;1.30;;;6.70;99.90;;;;;;10411432;28;20621;-65
2023/11/27 13:34:32;;;;;;;2.40;1.50;;;6.80;99.90;;;;;;10436335;28;20223;-65
2023/11/27 13:39:41;;;;;;;11.10;5.67;;;6.70;99.90;;;;;;10451319;28;20206;-65
2023/11/27 13:44:44;;;;;;;17.70;9.23;;;6.70;99.90;;;;;;10444395;28;20222;-65
2023/11/27 13:49:55;;;;;;;11.43;6.90;;;6.70;99.90;;;;;;10449103;28;20206;-65
2023/11/27 13:55:02;;;;;;;6.30;5.70;;;6.70;99.90;;;;;;10445726;28;20620;-65
2023/11/27 14:00:18;;;;;;;3.90;3.50;;;6.70;99.90;;;;;;10444421;28;20261;-65
2023/11/27 14:05:29;;;;;;;3.43;3.13;;;6.70;99.90;;;;;;10440729;28;20229;-65
2023/11/27 14:10:54;;;;;;;2.90;2.60;;;6.70;99.90;;;;;;10442615;28;20716;-65
2023/11/27 14:15:58;;;;;;;2.37;2.10;;;6.90;99.90;;;;;;10443920;28;20203;-65
2023/11/27 14:27:04;;;;;;;3.00;2.70;;;6.80;99.90;;;;;;10453015;28;20691;-64
2023/11/27 14:32:08;;;;;;;3.60;2.17;;;6.70;99.90;;;;;;10451543;28;20276;-66
2023/11/27 14:37:12;;;;;;;5.37;2.90;;;6.70;99.90;;;;;;10458793;28;20688;-66
2023/11/27 14:42:18;;;;;;;3.07;2.33;;;6.60;99.90;;;;;;10453789;28;20764;-66
2023/11/27 14:47:24;;;;;;;3.80;2.60;;;6.60;99.90;;;;;;10450897;28;20300;-67
2023/11/27 14:52:28;;;;;;;2.40;2.20;;;6.60;99.90;;;;;;10455364;28;20234;-66
2023/11/27 14:57:33;;;;;;;3.20;2.27;;;6.50;99.90;;;;;;10450287;28;20194;-66
2023/11/27 15:02:37;;;;;;;2.23;1.90;;;6.50;99.90;;;;;;10455637;28;20221;-66
2023/11/27 15:07:42;;;;;;;5.33;4.17;;;6.50;99.90;;;;;;10444535;28;20277;-66
2023/11/27 15:12:47;;;;;;;3.27;2.43;;;6.50;99.90;;;;;;10445907;28;20220;-66
2023/11/27 15:17:50;;;;;;;3.90;3.10;;;6.40;99.90;;;;;;10452630;28;20195;-66
2023/11/27 15:22:56;;;;;;;2.50;2.30;;;6.40;99.90;;;;;;10446950;28;20249;-66
2023/11/27 15:28:04;;;;;;;2.40;2.20;;;6.40;99.90;;;;;;10454403;28;20287;-66
2023/11/27 15:33:08;;;;;;;2.70;2.50;;;6.40;99.90;;;;;;10454303;28;20225;-66
2023/11/27 15:38:12;;;;;;;4.80;2.60;;;6.40;99.90;;;;;;10454326;28;20206;-66
2023/11/27 15:43:17;;;;;;;2.77;2.40;;;6.40;99.90;;;;;;10445450;28;20284;-66
2023/11/27 15:48:21;;;;;;;3.50;3.10;;;6.50;99.90;;;;;;10448345;28;20206;-67
2023/11/27 15:53:29;;;;;;;3.63;3.33;;;6.50;99.90;;;;;;10447562;28;20712;-67
2023/11/27 15:58:34;;;;;;;3.17;2.57;;;6.50;99.90;;;;;;10446089;28;20269;-66
2023/11/27 16:03:37;;;;;;;2.47;2.20;;;6.50;99.90;;;;;;10448615;28;20648;-66
2023/11/27 16:08:41;;;;;;;2.20;2.00;;;6.50;99.90;;;;;;10449609;28;20573;-67
2023/11/27 16:13:46;;;;;;;2.37;2.07;;;6.50;99.90;;;;;;10452909;28;20262;-66
2023/11/27 16:18:50;;;;;;;2.40;2.20;;;6.50;99.90;;;;;;10446748;28;20665;-66
2023/11/27 16:23:54;;;;;;;3.17;2.60;;;6.50;99.90;;;;;;10435976;28;20241;-66
2023/11/27 16:29:00;;;;;;;2.90;2.60;;;6.50;99.90;;;;;;10452294;28;20202;-66
2023/11/27 16:34:05;;;;;;;2.77;2.57;;;6.60;99.90;;;;;;10450468;28;20759;-66
2023/11/27 16:39:12;;;;;;;2.70;2.50;;;6.60;99.90;;;;;;10456417;28;20202;-66
2023/11/27 16:44:18;;;;;;;2.97;2.77;;;6.60;99.90;;;;;;10443630;28;20257;-66
2023/11/27 16:49:22;;;;;;;3.20;2.90;;;6.60;99.90;;;;;;10403741;28;20210;-66
2023/11/27 16:54:26;;;;;;;4.87;3.20;;;6.60;99.90;;;;;;10335686;28;20272;-65
2023/11/27 16:59:31;;;;;;;6.57;4.03;;;6.60;99.90;;;;;;10442494;28;20206;-65
2023/11/27 17:04:34;;;;;;;3.47;3.17;;;6.60;99.90;;;;;;10451605;28;20219;-65
2023/11/27 17:09:41;;;;;;;5.87;3.50;;;6.60;99.90;;;;;;10410863;28;20206;-65
2023/11/27 17:14:47;;;;;;;3.40;3.10;;;6.60;99.90;;;;;;10405393;28;20203;-65
2023/11/27 17:19:51;;;;;;;5.90;3.97;;;6.60;99.90;;;;;;10449829;28;20221;-65
2023/11/27 17:24:55;;;;;;;3.60;3.30;;;6.60;99.90;;;;;;10447147;28;20305;-65
2023/11/27 17:30:01;;;;;;;3.37;3.07;;;6.60;99.90;;;;;;10440137;28;20222;-65
2023/11/27 17:35:10;;;;;;;3.33;2.73;;;6.60;99.90;;;;;;10450906;28;20276;-60
2023/11/27 17:40:15;;;;;;;4.10;3.70;;;6.60;99.90;;;;;;10441927;28;20811;-61
2023/11/27 17:45:22;;;;;;;3.80;3.50;;;6.60;99.90;;;;;;10394740;28;20270;-62
2023/11/27 17:50:26;;;;;;;6.20;4.03;;;6.60;99.90;;;;;;10401245;28;20254;-62
2023/11/27 17:55:30;;;;;;;5.27;4.00;;;6.60;99.90;;;;;;10360512;28;20287;-61
2023/11/27 18:00:52;;;;;;;3.87;3.53;;;6.50;99.90;;;;;;10448308;28;20226;-61
2023/11/27 18:05:57;;;;;;;5.80;4.03;;;6.50;99.90;;;;;;10435354;28;20253;-61
2023/11/27 18:11:09;;;;;;;4.43;3.70;;;6.50;99.90;;;;;;10417232;28;20255;-61
2023/11/27 18:16:14;;;;;;;3.13;2.83;;;6.50;99.90;;;;;;10381154;28;20226;-61
2023/11/27 18:21:18;;;;;;;3.50;3.20;;;6.40;99.90;;;;;;10444586;28;20226;-62
2023/11/27 18:26:22;;;;;;;3.67;3.37;;;6.40;99.90;;;;;;10445501;28;20253;-62
2023/11/27 18:31:27;;;;;;;3.70;3.40;;;6.40;99.90;;;;;;10441432;28;20747;-62
2023/11/27 18:36:31;;;;;;;4.57;3.60;;;6.40;99.90;;;;;;10445564;28;20202;-61
2023/11/27 18:41:35;;;;;;;4.83;4.37;;;6.40;99.90;;;;;;10445859;28;20734;-61
2023/11/27 18:46:40;;;;;;;4.57;4.10;;;6.40;99.90;;;;;;10447119;28;20263;-61
2023/11/27 18:51:44;;;;;;;5.90;4.43;;;6.40;99.90;;;;;;10447547;28;20684;-60
2023/11/27 18:56:48;;;;;;;5.03;4.53;;;6.40;99.90;;;;;;10453192;28;20201;-61
2023/11/27 19:01:53;;;;;;;5.50;5.10;;;6.30;99.90;;;;;;10456151;28;20219;-60
2023/11/27 19:06:58;;;;;;;6.30;5.70;;;6.30;99.90;;;;;;10445999;28;20688;-61
2023/11/27 19:12:03;;;;;;;6.70;6.07;;;6.30;99.90;;;;;;10453008;28;20564;-60
2023/11/27 19:17:09;;;;;;;7.10;6.47;;;6.20;99.90;;;;;;10454135;28;20253;-61
2023/11/27 19:22:13;;;;;;;6.70;5.80;;;6.20;99.90;;;;;;10454757;28;20280;-61
2023/11/27 19:27:17;;;;;;;6.60;6.00;;;6.10;99.90;;;;;;10454506;28;20227;-61
2023/11/27 19:32:23;;;;;;;6.93;6.10;;;6.10;99.80;;;;;;10455390;28;20281;-60
2023/11/27 19:37:27;;;;;;;6.23;5.63;;;6.10;99.80;;;;;;10448653;28;20199;-61
2023/11/27 19:42:31;;;;;;;6.50;5.90;;;6.00;99.70;;;;;;10454893;28;20682;-61
2023/11/27 19:47:36;;;;;;;6.03;5.53;;;6.00;99.70;;;;;;10454415;28;20282;-61
2023/11/27 19:52:40;;;;;;;6.27;5.77;;;5.90;99.50;;;;;;10440489;28;20711;-60
2023/11/27 19:57:43;;;;;;;6.70;6.10;;;5.90;99.50;;;;;;10453443;28;20252;-60
2023/11/27 20:02:54;;;;;;;6.47;5.93;;;5.80;99.30;;;;;;10445707;28;20220;-61
2023/11/27 20:07:58;;;;;;;6.80;6.20;;;5.70;98.80;;;;;;10451220;28;20222;-59
2023/11/27 20:13:01;;;;;;;6.90;6.30;;;5.70;99.00;;;;;;10449222;28;20725;-60
2023/11/27 20:18:06;;;;;;;6.63;6.03;;;5.60;98.80;;;;;;10438197;28;20575;-61
2023/11/27 20:23:10;;;;;;;7.47;6.77;;;5.60;98.80;;;;;;10438375;28;20225;-62
2023/11/27 20:28:13;;;;;;;8.57;7.77;;;5.50;98.70;;;;;;10437876;28;20229;-62
2023/11/27 20:33:35;;;;;;;9.87;8.87;;;5.40;98.40;;;;;;10444031;28;20295;-62
2023/11/27 20:38:39;;;;;;;10.37;9.37;;;5.40;98.20;;;;;;10446435;28;20202;-61
2023/11/27 20:43:42;;;;;;;15.67;12.93;;;5.30;98.40;;;;;;10450564;28;20218;-61
2023/11/27 20:48:49;;;;;;;24.83;17.23;;;5.20;98.50;;;;;;10437613;28;20224;-60
2023/11/27 20:53:53;;;;;;;36.93;23.53;;;5.20;98.70;;;;;;10449144;28;20591;-63
2023/11/27 20:58:57;;;;;;;36.67;22.63;;;5.20;98.70;;;;;;10415081;28;20196;-60
2023/11/27 21:04:03;;;;;;;33.80;21.70;;;5.20;98.80;;;;;;10448592;28;20228;-61
2023/11/27 21:09:08;;;;;;;30.70;20.53;;;5.10;98.80;;;;;;10441242;28;20253;-60
2023/11/27 21:14:11;;;;;;;30.47;20.20;;;5.10;98.00;;;;;;10450460;28;20260;-59
2023/11/27 21:19:16;;;;;;;25.47;17.90;;;5.00;98.10;;;;;;10450389;28;20568;-61
2023/11/27 21:24:20;;;;;;;21.30;16.60;;;5.00;98.10;;;;;;10444317;28;20922;-61
2023/11/27 21:29:24;;;;;;;17.80;14.33;;;5.00;98.20;;;;;;10401771;28;20824;-60
2023/11/27 21:34:29;;;;;;;15.43;12.73;;;5.00;98.00;;;;;;10438126;28;20258;-61
2023/11/27 21:39:33;;;;;;;13.00;11.60;;;5.00;98.20;;;;;;10410354;28;20627;-62
2023/11/27 21:44:36;;;;;;;10.53;9.53;;;4.90;98.10;;;;;;10437952;28;20241;-61
2023/11/27 21:49:44;;;;;;;10.40;9.40;;;4.90;98.30;;;;;;10438378;28;20252;-61
2023/11/27 21:54:48;;;;;;;9.00;8.10;;;4.90;98.10;;;;;;10433419;28;20267;-61
2023/11/27 21:59:52;;;;;;;8.10;7.33;;;4.90;97.90;;;;;;10436730;28;20221;-61
2023/11/27 22:04:58;;;;;;;8.57;7.70;;;4.90;97.90;;;;;;10447245;28;20213;-61
2023/11/27 22:10:02;;;;;;;7.50;6.80;;;4.80;97.70;;;;;;10449507;28;20222;-61
2023/11/27 22:15:06;;;;;;;9.03;8.10;;;4.80;98.00;;;;;;10445758;28;20203;-60
2023/11/27 22:20:15;;;;;;;7.60;6.90;;;4.80;97.60;;;;;;10418574;28;20283;-60
2023/11/27 22:25:19;;;;;;;7.40;6.57;;;4.80;98.10;;;;;;10440675;28;20201;-60
2023/11/27 22:30:23;;;;;;;7.27;6.57;;;4.80;97.70;;;;;;10393470;28;20233;-62
2023/11/27 22:35:28;;;;;;;7.30;6.60;;;4.70;97.90;;;;;;10443981;28;20207;-61
2023/11/27 22:40:32;;;;;;;7.87;7.07;;;4.60;98.00;;;;;;10445402;28;20761;-61
2023/11/27 22:45:36;;;;;;;7.23;6.50;;;4.60;98.30;;;;;;10445175;28;20229;-62
2023/11/27 22:50:41;;;;;;;7.40;6.70;;;4.60;97.70;;;;;;10434048;28;20285;-62
2023/11/27 22:55:45;;;;;;;6.33;5.73;;;4.60;98.10;;;;;;10445857;28;20205;-62
2023/11/27 23:00:48;;;;;;;7.27;6.57;;;4.60;97.80;;;;;;10440179;28;20215;-62
2023/11/27 23:05:55;;;;;;;7.00;6.40;;;4.60;97.80;;;;;;10451514;28;20208;-62
2023/11/27 23:11:00;;;;;;;6.70;6.10;;;4.60;97.60;;;;;;10462736;28;20323;-61
2023/11/27 23:16:04;;;;;;;6.63;5.63;;;4.50;97.60;;;;;;10449711;28;20204;-61
2023/11/27 23:21:11;;;;;;;5.70;5.20;;;4.60;97.90;;;;;;10445689;28;20222;-61
2023/11/27 23:26:16;;;;;;;5.37;4.97;;;4.50;97.80;;;;;;10446191;28;20204;-61
2023/11/27 23:31:20;;;;;;;5.10;4.70;;;4.50;98.00;;;;;;10430584;28;20433;-60
2023/11/27 23:36:25;;;;;;;4.97;4.57;;;4.50;98.60;;;;;;10437590;28;20201;-62
2023/11/27 23:41:29;;;;;;;5.30;4.90;;;4.40;97.80;;;;;;10441220;28;20225;-62
2023/11/27 23:46:33;;;;;;;5.23;4.83;;;4.50;99.00;;;;;;10401070;28;20322;-62
2023/11/27 23:51:40;;;;;;;5.37;4.97;;;4.40;98.70;;;;;;10424438;28;20273;-61
2023/11/27 23:56:44;;;;;;;6.00;5.50;;;4.40;98.00;;;;;;10414506;28;20203;-61
